createdAt,value
2023-03-10T00:01:34.725Z,11.50
2023-03-10T00:04:04.021Z,11.97
2023-03-10T00:06:37.530Z,11.50
2023-03-10T00:09:06.819Z,11.63
2023-03-10T00:11:36.031Z,11.63
2023-03-10T00:14:05.084Z,9.53
2023-03-10T00:16:34.139Z,10.60
2023-03-10T00:19:03.174Z,11.20
2023-03-10T00:21:33.306Z,11.13
2023-03-10T00:24:03.750Z,11.63
2023-03-10T00:26:33.595Z,10.60
2023-03-10T00:29:02.647Z,11.67
2023-03-10T00:31:34.581Z,10.90
2023-03-10T00:34:03.714Z,11.43
2023-03-10T00:36:33.741Z,10.67
2023-03-10T00:39:05.339Z,12.67
2023-03-10T00:41:38.926Z,12.37
2023-03-10T00:44:09.483Z,12.47
2023-03-10T00:46:39.422Z,12.30
2023-03-10T00:49:09.832Z,10.80
2023-03-10T00:51:38.802Z,14.67
2023-03-10T00:54:10.784Z,13.00
2023-03-10T00:56:40.110Z,12.43
2023-03-10T00:59:11.235Z,12.47
2023-03-10T01:01:42.505Z,12.07
2023-03-10T01:04:14.789Z,11.53
2023-03-10T01:06:47.391Z,11.80
2023-03-10T01:09:18.875Z,13.23
2023-03-10T01:11:49.067Z,11.53
2023-03-10T01:14:18.537Z,12.33
2023-03-10T01:16:47.610Z,11.33
2023-03-10T01:19:18.149Z,12.63
2023-03-10T01:21:47.159Z,12.07
2023-03-10T01:24:17.985Z,10.87
2023-03-10T01:26:46.994Z,10.53
2023-03-10T01:29:16.174Z,11.93
2023-03-10T01:31:45.313Z,10.70
2023-03-10T01:34:14.640Z,12.33
2023-03-10T01:36:43.846Z,12.07
2023-03-10T01:39:12.850Z,10.73
2023-03-10T01:41:44.293Z,12.30
2023-03-10T01:44:19.875Z,10.77
2023-03-10T01:46:51.379Z,9.77
2023-03-10T01:49:36.104Z,12.00
2023-03-10T01:52:09.570Z,10.97
2023-03-10T01:54:50.116Z,11.10
2023-03-10T01:57:26.211Z,10.47
2023-03-10T01:59:56.723Z,12.40
2023-03-10T02:02:27.015Z,10.70
2023-03-10T02:04:58.661Z,11.07
2023-03-10T02:07:34.658Z,10.87
2023-03-10T02:10:05.143Z,12.17
2023-03-10T02:12:35.696Z,11.07
2023-03-10T02:15:05.307Z,9.13
2023-03-10T02:17:36.178Z,10.57
2023-03-10T02:20:26.459Z,11.00
2023-03-10T02:22:55.853Z,11.93
2023-03-10T02:25:37.377Z,11.30
2023-03-10T02:28:08.067Z,9.63
2023-03-10T02:30:39.661Z,9.23
2023-03-10T02:33:12.974Z,9.03
2023-03-10T02:35:42.191Z,10.00
2023-03-10T02:38:15.060Z,9.80
2023-03-10T02:40:47.329Z,11.10
2023-03-10T02:43:31.091Z,9.53
2023-03-10T02:46:10.482Z,9.80
2023-03-10T02:48:43.754Z,11.13
2023-03-10T02:51:24.312Z,9.07
2023-03-10T02:53:54.799Z,10.63
2023-03-10T02:56:25.251Z,10.90
2023-03-10T02:58:55.720Z,11.40
2023-03-10T03:01:26.221Z,8.33
2023-03-10T03:03:56.998Z,9.77
2023-03-10T03:06:29.338Z,10.00
2023-03-10T03:08:58.727Z,10.40
2023-03-10T03:11:29.707Z,9.50
2023-03-10T03:14:00.154Z,10.03
2023-03-10T03:16:29.629Z,8.90
2023-03-10T03:19:02.598Z,10.70
2023-03-10T03:21:33.044Z,10.50
2023-03-10T03:24:02.083Z,10.47
2023-03-10T03:26:31.858Z,8.70
2023-03-10T03:29:10.496Z,8.60
2023-03-10T03:31:40.968Z,9.63
2023-03-10T03:34:15.522Z,10.07
2023-03-10T03:36:45.616Z,10.53
2023-03-10T03:39:17.640Z,10.07
2023-03-10T03:41:53.190Z,8.37
2023-03-10T03:44:24.581Z,8.80
2023-03-10T03:46:54.872Z,9.83
2023-03-10T03:49:25.192Z,10.13
2023-03-10T03:51:54.417Z,7.90
2023-03-10T03:54:25.695Z,10.77
2023-03-10T03:56:55.870Z,9.47
2023-03-10T03:59:26.506Z,10.57
2023-03-10T04:01:56.741Z,10.23
2023-03-10T04:04:26.717Z,10.73
2023-03-10T04:06:56.968Z,10.60
2023-03-10T04:09:26.172Z,10.93
2023-03-10T04:11:55.273Z,9.70
2023-03-10T04:14:26.964Z,10.17
2023-03-10T04:16:57.483Z,10.77
2023-03-10T04:19:26.553Z,10.13
2023-03-10T04:22:01.081Z,10.33
2023-03-10T04:24:31.693Z,9.73
2023-03-10T04:27:01.513Z,9.37
2023-03-10T04:29:31.942Z,9.93
2023-03-10T04:32:05.596Z,10.67
2023-03-10T04:34:38.713Z,8.30
2023-03-10T04:37:08.512Z,9.60
2023-03-10T04:39:38.619Z,8.73
2023-03-10T04:42:08.634Z,9.87
2023-03-10T04:44:39.168Z,10.53
2023-03-10T04:47:09.281Z,8.57
2023-03-10T04:49:39.087Z,9.10
2023-03-10T04:52:12.096Z,9.97
2023-03-10T04:54:41.476Z,9.37
2023-03-10T04:57:10.530Z,9.10
2023-03-10T04:59:41.503Z,9.77
2023-03-10T05:02:10.752Z,8.57
2023-03-10T05:04:40.352Z,9.10
2023-03-10T05:07:11.482Z,10.43
2023-03-10T05:09:46.048Z,9.83
2023-03-10T05:12:15.212Z,8.83
2023-03-10T05:14:45.640Z,9.33
2023-03-10T05:17:15.164Z,10.27
2023-03-10T05:19:44.414Z,12.17
2023-03-10T05:22:14.404Z,10.57
2023-03-10T05:24:44.171Z,9.53
2023-03-10T05:27:14.894Z,8.70
2023-03-10T05:29:47.156Z,8.30
2023-03-10T05:32:23.801Z,11.23
2023-03-10T05:34:53.767Z,10.93
2023-03-10T05:37:22.868Z,9.37
2023-03-10T05:39:52.059Z,9.90
2023-03-10T05:42:24.028Z,11.07
2023-03-10T05:44:54.767Z,9.97
2023-03-10T05:47:23.887Z,9.63
2023-03-10T05:49:52.996Z,9.57
2023-03-10T05:52:22.091Z,9.20
2023-03-10T05:54:51.434Z,9.57
2023-03-10T05:57:20.963Z,9.03
2023-03-10T05:59:49.989Z,8.90
2023-03-10T06:02:20.836Z,9.50
2023-03-10T06:04:49.894Z,8.53
2023-03-10T06:07:18.934Z,10.87
2023-03-10T06:09:47.919Z,10.10
2023-03-10T06:12:16.971Z,9.57
2023-03-10T06:14:46.082Z,9.50
2023-03-10T06:17:16.040Z,9.37
2023-03-10T06:19:47.451Z,8.73
2023-03-10T06:22:16.522Z,9.37
2023-03-10T06:24:45.705Z,8.50
2023-03-10T06:27:14.773Z,7.53
2023-03-10T06:29:43.893Z,9.53
2023-03-10T06:32:13.019Z,9.50
2023-03-10T06:34:42.228Z,8.47
2023-03-10T06:37:12.633Z,6.93
2023-03-10T06:39:42.070Z,7.33
2023-03-10T06:42:11.174Z,6.60
2023-03-10T06:44:40.234Z,8.93
2023-03-10T06:47:09.311Z,8.63
2023-03-10T06:49:38.403Z,8.83
2023-03-10T06:52:08.004Z,9.40
2023-03-10T06:54:38.596Z,9.00
2023-03-10T06:57:08.056Z,9.43
2023-03-10T06:59:37.502Z,8.60
2023-03-10T07:02:07.129Z,9.77
2023-03-10T07:04:36.201Z,8.53
2023-03-10T07:07:05.596Z,7.83
2023-03-10T07:09:34.980Z,8.13
2023-03-10T07:12:05.885Z,8.37
2023-03-10T07:14:35.001Z,7.40
2023-03-10T07:17:04.759Z,7.77
2023-03-10T07:19:33.873Z,7.83
2023-03-10T07:22:03.415Z,8.37
2023-03-10T07:24:32.439Z,7.70
2023-03-10T07:27:02.311Z,7.97
2023-03-10T07:29:32.668Z,8.27
2023-03-10T07:32:02.022Z,8.93
2023-03-10T07:34:31.054Z,7.90
2023-03-10T07:37:00.081Z,8.67
2023-03-10T07:39:29.127Z,8.57
2023-03-10T07:41:58.149Z,9.27
2023-03-10T07:44:27.195Z,8.43
2023-03-10T07:46:57.714Z,8.23
2023-03-10T07:49:26.893Z,8.73
2023-03-10T07:51:55.944Z,8.67
2023-03-10T07:54:24.952Z,9.60
2023-03-10T07:56:54.105Z,7.23
2023-03-10T07:59:23.164Z,8.23
2023-03-10T08:01:52.179Z,9.53
2023-03-10T08:04:22.613Z,8.57
2023-03-10T08:06:51.797Z,9.10
2023-03-10T08:09:20.834Z,7.67
2023-03-10T08:11:49.837Z,8.80
2023-03-10T08:14:20.878Z,8.80
2023-03-10T08:16:50.216Z,8.63
2023-03-10T08:19:20.672Z,8.33
2023-03-10T08:21:49.741Z,7.83
2023-03-10T08:24:19.042Z,8.77
2023-03-10T08:26:48.076Z,7.97
2023-03-10T08:29:17.444Z,9.40
2023-03-10T08:31:46.616Z,8.40
2023-03-10T08:34:16.300Z,8.50
2023-03-10T08:36:46.782Z,8.80
2023-03-10T08:39:15.938Z,8.50
2023-03-10T08:41:49.148Z,9.30
2023-03-10T08:44:20.434Z,8.37
2023-03-10T08:46:51.210Z,8.97
2023-03-10T08:49:22.378Z,9.03
2023-03-10T08:51:52.884Z,7.13
2023-03-10T08:54:23.449Z,8.17
2023-03-10T08:56:53.037Z,8.30
2023-03-10T08:59:22.424Z,9.63
2023-03-10T09:01:51.709Z,9.43
2023-03-10T09:04:20.892Z,8.50
2023-03-10T09:06:49.931Z,7.47
2023-03-10T09:09:20.484Z,9.33
2023-03-10T09:11:49.699Z,7.47
2023-03-10T09:14:20.157Z,8.10
2023-03-10T09:16:49.261Z,9.30
2023-03-10T09:19:18.357Z,7.60
2023-03-10T09:21:47.738Z,7.60
2023-03-10T09:24:17.960Z,6.93
2023-03-10T09:26:48.514Z,6.63
2023-03-10T09:29:17.569Z,7.73
2023-03-10T09:31:48.200Z,9.03
2023-03-10T09:34:17.404Z,7.80
2023-03-10T09:36:46.976Z,8.37
2023-03-10T09:39:16.020Z,8.60
2023-03-10T09:42:06.821Z,8.10
2023-03-10T09:44:43.402Z,7.80
2023-03-10T09:47:25.029Z,10.03
2023-03-10T09:50:08.828Z,7.50
2023-03-10T09:52:45.250Z,8.83
2023-03-10T09:55:23.190Z,8.37
2023-03-10T09:57:56.635Z,8.80
2023-03-10T10:00:30.756Z,9.03
2023-03-10T10:03:09.164Z,8.57
2023-03-10T10:05:42.634Z,10.17
2023-03-10T10:08:20.958Z,10.47
2023-03-10T10:10:54.133Z,11.37
2023-03-10T10:13:26.488Z,8.93
2023-03-10T10:16:21.475Z,10.03
2023-03-10T10:18:56.962Z,9.80
2023-03-10T10:21:41.716Z,9.83
2023-03-10T10:24:11.530Z,10.70
2023-03-10T10:26:40.585Z,9.90
2023-03-10T10:29:18.419Z,9.77
2023-03-10T10:32:06.658Z,9.53
2023-03-10T10:34:37.121Z,10.47
2023-03-10T10:37:22.433Z,10.17
2023-03-10T10:39:54.353Z,11.90
2023-03-10T10:42:25.948Z,9.23
2023-03-10T10:44:58.204Z,9.13
2023-03-10T10:47:30.800Z,9.47
2023-03-10T10:50:18.882Z,11.30
2023-03-10T10:52:50.550Z,9.83
2023-03-10T10:55:28.328Z,10.67
2023-03-10T10:58:01.472Z,11.53
2023-03-10T11:00:34.644Z,11.40
2023-03-10T11:03:19.158Z,10.43
2023-03-10T11:05:48.377Z,10.37
2023-03-10T11:08:30.441Z,9.03
2023-03-10T11:11:04.157Z,10.87
2023-03-10T11:13:46.157Z,10.63
2023-03-10T11:16:23.188Z,9.40
2023-03-10T11:18:58.406Z,8.57
2023-03-10T11:21:30.099Z,10.10
2023-03-10T11:24:06.694Z,8.93
2023-03-10T11:26:49.758Z,11.37
2023-03-10T11:29:29.582Z,10.13
2023-03-10T11:32:09.466Z,7.83
2023-03-10T11:34:44.528Z,9.93
2023-03-10T11:37:22.562Z,10.43
2023-03-10T11:40:07.622Z,7.30
2023-03-10T11:42:44.661Z,6.83
2023-03-10T11:45:27.477Z,8.70
2023-03-10T11:48:06.072Z,8.23
2023-03-10T11:50:43.406Z,8.00
2023-03-10T11:53:17.179Z,8.80
2023-03-10T11:55:46.615Z,7.00
2023-03-10T11:58:24.347Z,8.83
2023-03-10T12:00:55.232Z,8.97
2023-03-10T12:03:40.320Z,9.00
2023-03-10T12:06:13.906Z,8.30
2023-03-10T12:08:43.673Z,9.47
2023-03-10T12:11:18.456Z,8.60
2023-03-10T12:13:52.752Z,7.27
2023-03-10T12:16:25.458Z,7.23
2023-03-10T12:18:55.986Z,7.70
2023-03-10T12:21:26.932Z,7.23
2023-03-10T12:23:57.599Z,7.53
2023-03-10T12:27:03.801Z,7.70
2023-03-10T12:29:50.702Z,6.87
2023-03-10T12:32:47.579Z,7.47
2023-03-10T12:35:47.387Z,7.83
2023-03-10T12:38:42.991Z,7.97
2023-03-10T12:41:12.890Z,8.37
2023-03-10T12:43:53.699Z,8.80
2023-03-10T12:46:31.208Z,7.20
2023-03-10T12:49:19.230Z,7.33
2023-03-10T12:51:54.541Z,6.43
2023-03-10T12:54:43.271Z,7.10
2023-03-10T12:57:18.191Z,7.00
2023-03-10T12:59:57.196Z,7.77
2023-03-10T13:02:33.934Z,6.40
2023-03-10T13:05:06.907Z,7.50
2023-03-10T13:07:38.399Z,6.63
2023-03-10T13:10:16.477Z,6.23
2023-03-10T13:12:51.180Z,7.20
2023-03-10T13:15:29.293Z,7.13
2023-03-10T13:18:12.091Z,7.27
2023-03-10T13:20:41.152Z,7.30
2023-03-10T13:23:23.331Z,7.00
2023-03-10T13:25:56.419Z,7.40
2023-03-10T13:28:25.865Z,7.40
2023-03-10T13:31:18.355Z,8.33
2023-03-10T13:33:53.457Z,7.03
2023-03-10T13:36:29.761Z,7.53
2023-03-10T13:39:01.794Z,6.60
2023-03-10T13:41:37.100Z,7.90
2023-03-10T13:44:06.512Z,8.17
2023-03-10T13:46:36.165Z,7.13
2023-03-10T13:49:08.653Z,7.90
2023-03-10T13:51:38.980Z,7.40
2023-03-10T13:54:22.066Z,6.97
2023-03-10T13:56:53.729Z,6.87
2023-03-10T13:59:26.457Z,6.73
2023-03-10T14:01:58.504Z,5.73
2023-03-10T14:04:52.063Z,7.57
2023-03-10T14:07:23.410Z,7.00
2023-03-10T14:10:20.110Z,6.07
2023-03-10T14:12:51.247Z,6.20
2023-03-10T14:15:25.499Z,6.77
2023-03-10T14:18:20.444Z,7.83
2023-03-10T14:20:49.944Z,7.03
2023-03-10T14:23:27.996Z,5.97
2023-03-10T14:25:58.514Z,7.90
2023-03-10T14:28:29.350Z,7.30
2023-03-10T14:30:58.869Z,5.77
2023-03-10T14:33:29.869Z,7.13
2023-03-10T14:35:59.018Z,7.43
2023-03-10T14:38:28.071Z,7.00
2023-03-10T14:40:57.365Z,7.10
2023-03-10T14:43:28.326Z,7.20
2023-03-10T14:46:00.074Z,6.87
2023-03-10T14:48:35.548Z,6.17
2023-03-10T14:51:06.217Z,8.73
2023-03-10T14:53:35.585Z,5.90
2023-03-10T14:56:04.766Z,6.40
2023-03-10T14:58:46.448Z,7.93
2023-03-10T15:01:18.437Z,7.07
2023-03-10T15:03:50.030Z,7.10
2023-03-10T15:06:20.974Z,6.23
2023-03-10T15:08:50.047Z,6.47
2023-03-10T15:11:34.190Z,6.77
2023-03-10T15:14:05.866Z,8.53
2023-03-10T15:16:34.904Z,7.03
2023-03-10T15:19:05.309Z,7.70
2023-03-10T15:21:34.336Z,7.43
2023-03-10T15:24:07.354Z,7.83
2023-03-10T15:26:36.470Z,8.23
2023-03-10T15:29:05.539Z,7.20
2023-03-10T15:31:35.032Z,5.63
2023-03-10T15:34:06.420Z,6.93
2023-03-10T15:36:36.290Z,7.07
2023-03-10T15:39:06.208Z,6.57
2023-03-10T15:41:36.146Z,7.13
2023-03-10T15:44:07.033Z,6.83
2023-03-10T15:46:36.236Z,7.37
2023-03-10T15:49:06.810Z,5.60
2023-03-10T15:51:35.840Z,7.47
2023-03-10T15:54:04.981Z,6.47
2023-03-10T15:56:34.016Z,7.27
2023-03-10T15:59:04.512Z,6.83
2023-03-10T16:01:33.698Z,6.63
2023-03-10T16:04:05.794Z,6.77
2023-03-10T16:06:36.690Z,6.73
2023-03-10T16:09:08.616Z,7.30
2023-03-10T16:11:38.420Z,6.40
2023-03-10T16:14:07.520Z,6.90
2023-03-10T16:16:36.765Z,6.10
2023-03-10T16:19:06.110Z,6.03
2023-03-10T16:21:36.651Z,5.27
2023-03-10T16:24:06.254Z,6.70
2023-03-10T16:26:35.648Z,6.40
2023-03-10T16:29:07.145Z,6.80
2023-03-10T16:31:36.458Z,6.60
2023-03-10T16:34:06.225Z,5.93
2023-03-10T16:36:37.163Z,6.17
2023-03-10T16:39:10.056Z,6.43
2023-03-10T16:41:39.747Z,7.57
2023-03-10T16:44:11.950Z,7.20
2023-03-10T16:46:41.072Z,5.87
2023-03-10T16:49:15.571Z,5.83
2023-03-10T16:51:47.950Z,5.47
2023-03-10T16:54:19.381Z,5.70
2023-03-10T16:56:50.303Z,6.87
2023-03-10T16:59:21.114Z,6.60
2023-03-10T17:01:51.164Z,6.50
2023-03-10T17:04:21.147Z,5.97
2023-03-10T17:06:51.790Z,7.40
2023-03-10T17:09:20.962Z,6.27
2023-03-10T17:11:54.945Z,6.70
2023-03-10T17:14:24.438Z,6.60
2023-03-10T17:16:56.329Z,7.23
2023-03-10T17:19:29.758Z,6.43
2023-03-10T17:22:00.427Z,6.73
2023-03-10T17:24:29.711Z,6.57
2023-03-10T17:26:58.891Z,8.00
2023-03-10T17:29:27.991Z,7.30
2023-03-10T17:31:57.157Z,7.33
2023-03-10T17:34:27.016Z,7.03
2023-03-10T17:36:56.087Z,7.53
2023-03-10T17:39:27.550Z,7.43
2023-03-10T17:41:56.803Z,7.17
2023-03-10T17:44:26.293Z,7.83
2023-03-10T17:46:56.180Z,7.70
2023-03-10T17:49:25.260Z,7.77
2023-03-10T17:51:54.392Z,6.67
2023-03-10T17:54:25.543Z,6.27
2023-03-10T17:56:54.653Z,6.43
2023-03-10T17:59:23.747Z,6.97
2023-03-10T18:01:52.904Z,6.67
2023-03-10T18:04:22.044Z,6.87
2023-03-10T18:06:51.060Z,6.93
2023-03-10T18:09:20.139Z,7.00
2023-03-10T18:11:50.560Z,6.60
2023-03-10T18:14:19.599Z,7.17
2023-03-10T18:16:48.704Z,7.07
2023-03-10T18:19:21.271Z,7.20
2023-03-10T18:21:51.185Z,6.33
2023-03-10T18:24:20.182Z,7.27
2023-03-10T18:26:50.619Z,7.30
2023-03-10T18:29:19.644Z,6.83
2023-03-10T18:31:48.679Z,5.93
2023-03-10T18:34:19.336Z,7.30
2023-03-10T18:36:48.548Z,6.33
2023-03-10T18:39:18.310Z,7.50
2023-03-10T18:41:49.885Z,7.03
2023-03-10T18:44:18.969Z,7.83
2023-03-10T18:46:48.124Z,7.47
2023-03-10T18:49:17.193Z,7.80
2023-03-10T18:51:46.452Z,8.47
2023-03-10T18:54:15.842Z,7.00
2023-03-10T18:56:44.879Z,7.37
2023-03-10T18:59:15.308Z,6.50
2023-03-10T19:01:44.441Z,7.27
2023-03-10T19:04:13.638Z,7.87
2023-03-10T19:06:42.783Z,7.57
2023-03-10T19:09:12.865Z,5.80
2023-03-10T19:11:42.017Z,8.13
2023-03-10T19:14:11.311Z,8.50
2023-03-10T19:16:42.709Z,5.90
2023-03-10T19:19:12.147Z,9.73
2023-03-10T19:21:41.176Z,13.73
2023-03-10T19:24:11.111Z,19.13
2023-03-10T19:26:40.475Z,7.27
2023-03-10T19:29:09.962Z,7.77
2023-03-10T19:31:39.889Z,5.87
2023-03-10T19:34:10.425Z,8.43
2023-03-10T19:36:39.545Z,7.23
2023-03-10T19:39:08.567Z,8.83
2023-03-10T19:41:37.711Z,7.93
2023-03-10T19:44:06.764Z,7.17
2023-03-10T19:46:35.856Z,8.80
2023-03-10T19:49:06.859Z,7.40
2023-03-10T19:51:37.448Z,9.67
2023-03-10T19:54:07.503Z,7.83
2023-03-10T19:56:36.599Z,8.40
2023-03-10T19:59:06.338Z,7.67
2023-03-10T20:01:36.909Z,6.93
2023-03-10T20:04:06.258Z,9.03
2023-03-10T20:06:36.670Z,7.70
2023-03-10T20:09:10.110Z,8.53
2023-03-10T20:11:39.837Z,7.63
2023-03-10T20:14:09.503Z,6.27
2023-03-10T20:16:38.817Z,6.10
2023-03-10T20:19:07.928Z,6.10
2023-03-10T20:21:38.540Z,6.23
2023-03-10T20:24:07.881Z,6.40
2023-03-10T20:26:36.960Z,5.67
2023-03-10T20:29:06.387Z,6.17
2023-03-10T20:31:35.460Z,5.83
2023-03-10T20:34:06.793Z,5.10
2023-03-10T20:36:39.844Z,6.97
2023-03-10T20:39:09.709Z,6.23
2023-03-10T20:41:38.853Z,5.30
2023-03-10T20:44:13.866Z,5.90
2023-03-10T20:46:43.629Z,5.40
2023-03-10T20:49:13.652Z,5.37
2023-03-10T20:51:44.200Z,5.37
2023-03-10T20:54:13.231Z,3.27
2023-03-10T20:56:42.573Z,5.47
2023-03-10T20:59:12.423Z,4.17
2023-03-10T21:01:42.495Z,4.43
2023-03-10T21:04:11.741Z,3.90
2023-03-10T21:06:41.103Z,4.90
2023-03-10T21:09:11.473Z,4.37
2023-03-10T21:11:40.724Z,5.70
2023-03-10T21:14:09.950Z,5.60
2023-03-10T21:16:41.609Z,3.67
2023-03-10T21:19:11.405Z,6.23
2023-03-10T21:21:40.526Z,4.80
2023-03-10T21:24:12.559Z,6.47
2023-03-10T21:26:41.651Z,4.33
2023-03-10T21:29:10.736Z,4.87
2023-03-10T21:31:39.959Z,4.43
2023-03-10T21:34:09.011Z,5.17
2023-03-10T21:36:38.336Z,4.07
2023-03-10T21:39:08.853Z,4.47
2023-03-10T21:41:39.437Z,4.63
2023-03-10T21:44:08.711Z,3.60
2023-03-10T21:46:38.022Z,3.40
2023-03-10T21:49:07.297Z,4.10
2023-03-10T21:51:37.856Z,4.47
2023-03-10T21:54:07.935Z,3.83
2023-03-10T21:56:38.431Z,3.50
2023-03-10T21:59:07.782Z,3.27
2023-03-10T22:01:37.177Z,2.90
2023-03-10T22:04:06.538Z,4.63
2023-03-10T22:06:35.538Z,2.77
2023-03-10T22:09:05.397Z,3.87
2023-03-10T22:11:36.065Z,4.33
2023-03-10T22:14:06.542Z,4.40
2023-03-10T22:16:35.559Z,4.73
2023-03-10T22:19:04.878Z,3.80
2023-03-10T22:21:34.083Z,4.53
2023-03-10T22:24:03.543Z,4.57
2023-03-10T22:26:32.613Z,4.73
2023-03-10T22:29:01.740Z,5.30
2023-03-10T22:31:32.209Z,5.00
2023-03-10T22:34:01.251Z,4.67
2023-03-10T22:36:30.491Z,4.77
2023-03-10T22:38:59.936Z,4.07
2023-03-10T22:41:29.051Z,3.77
2023-03-10T22:43:58.204Z,4.07
2023-03-10T22:46:27.284Z,5.50
2023-03-10T22:48:58.031Z,4.73
2023-03-10T22:51:27.715Z,4.27
2023-03-10T22:53:56.935Z,3.83
2023-03-10T22:56:26.030Z,4.50
2023-03-10T22:58:55.620Z,4.53
2023-03-10T23:01:24.696Z,3.70
2023-03-10T23:03:53.813Z,4.83
2023-03-10T23:06:26.235Z,3.63
2023-03-10T23:08:55.623Z,4.13
2023-03-10T23:11:24.907Z,4.03
2023-03-10T23:13:54.079Z,3.53
2023-03-10T23:16:23.697Z,5.53
2023-03-10T23:18:52.809Z,4.17
2023-03-10T23:21:23.188Z,5.00
2023-03-10T23:23:52.267Z,5.53
2023-03-10T23:26:21.322Z,4.77
2023-03-10T23:28:50.362Z,3.60
2023-03-10T23:31:19.462Z,3.57
2023-03-10T23:33:49.462Z,4.60
2023-03-10T23:36:20.178Z,5.93
2023-03-10T23:38:50.672Z,4.63
2023-03-10T23:41:19.731Z,5.87
2023-03-10T23:43:49.912Z,5.43
2023-03-10T23:46:21.725Z,5.03
2023-03-10T23:48:52.209Z,4.93
2023-03-10T23:51:21.276Z,4.83
2023-03-10T23:53:51.671Z,5.17
2023-03-10T23:56:20.699Z,5.03
2023-03-10T23:58:49.715Z,4.63
